Etusivu
METAR-TAF:

METAR-TAF

Lentoasemat :

Kuningas Abdilazizin kansainvälinen lentoasema

Jedda, Saudi-Arabia

Leveyspiiri: 21-42N, Pituuspiiri: 039-11E, korkeus merenpinnasta: 15 m

Tämänhetkinen sää

Tämä raportti tehtiin 1 tunti ja 6 minuuttia sitten, kello 18.00 UTC
Tuuli 14 kn idästä/kaakosta
Lämpötila 32°C
Kosteus 43%
Ilmanpaine 1010 hPa
Näkyvyys: 8000 m
Muutamia pilviä 3500 ft:n korkeudessa

METAR: OEJN 201800Z 12014KT 8000 FEW035 32/18 Q1010 NOSIG

Aika: 22:06 (19:06 UTC)

Sääennuste

Tämä raportti tehtiin 2 tuntia ja 6 minuuttia sitten, kello 17.00 UTC
Ennuste voimassa 20. päivästä klo 18 UTC - 21. päivään klo 24 UTC
Tuuli 8 kn pohjoisesta/koillisesta
Näkyvyys: 8000 m
Muutamia pilviä 4000 ft:n korkeudessa
Tulossa
21. päivästä klo 06 UTC - 21. päivään klo 08 UTC
Tuuli 14 kn lännestä/luoteesta

TAF: OEJN 201700Z 2018/2124 03008KT 8000 FEW040 BECMG 2106/2108 30014KT

Säähavainnot ja -ennusteet yli 4000 lentoasemalta (METAR- ja TAF-raportit).

Käytössä olevat sääasemat on merkitty karttaan keltaisilla ja punaisilla pisteillä.

Aseta hiiri pisteen päälle nähdäksesi sääaseman nimen.

Klikkaa sitten nähdäksesi säähavainnot ja -ennusteet.

Kartan vaihtaminen: klikkaa mustalla rastilla varustettuja vihreitä pisteitä, niin voit zoomata sisään; viivalla varustettua vihreää pistettä, niin voit zoomata ulos tai vihreitä nuolia, niin pääset viereisille kartoille.


METAR-TAF: